createdAt,value
2022-12-25T00:00:54.675Z,1012.60
2022-12-25T00:01:54.523Z,1012.62
2022-12-25T00:02:54.638Z,1012.61
2022-12-25T00:03:54.624Z,1012.64
2022-12-25T00:04:54.484Z,1012.65
2022-12-25T00:05:54.498Z,1012.62
2022-12-25T00:06:54.473Z,1012.64
2022-12-25T00:07:54.492Z,1012.67
2022-12-25T00:08:54.445Z,1012.62
2022-12-25T00:09:54.438Z,1012.68
2022-12-25T00:10:54.421Z,1012.68
2022-12-25T00:11:54.419Z,1012.66
2022-12-25T00:12:54.399Z,1012.61
2022-12-25T00:13:54.413Z,1012.66
2022-12-25T00:14:54.377Z,1012.63
2022-12-25T00:15:54.399Z,1012.66
2022-12-25T00:16:54.371Z,1012.65
2022-12-25T00:17:54.373Z,1012.68
2022-12-25T00:18:54.372Z,1012.67
2022-12-25T00:19:54.327Z,1012.63
2022-12-25T00:20:54.838Z,1012.62
2022-12-25T00:21:54.334Z,1012.67
2022-12-25T00:22:54.308Z,1012.62
2022-12-25T00:23:54.307Z,1012.65
2022-12-25T00:24:54.268Z,1012.58
2022-12-25T00:25:54.289Z,1012.66
2022-12-25T00:26:54.252Z,1012.70
2022-12-25T00:27:54.249Z,1012.70
2022-12-25T00:28:54.276Z,1012.63
2022-12-25T00:29:54.222Z,1012.71
2022-12-25T00:30:54.207Z,1012.77
2022-12-25T00:31:54.284Z,1012.78
2022-12-25T00:32:54.184Z,1012.77
2022-12-25T00:33:54.194Z,1012.77
2022-12-25T00:34:54.173Z,1012.79
2022-12-25T00:35:54.159Z,1012.76
2022-12-25T00:36:54.155Z,1012.77
2022-12-25T00:37:54.154Z,1012.81
2022-12-25T00:38:54.143Z,1012.76
2022-12-25T00:39:54.111Z,1012.76
2022-12-25T00:40:54.103Z,1012.77
2022-12-25T00:41:54.100Z,1012.76
2022-12-25T00:42:54.076Z,1012.86
2022-12-25T00:43:54.090Z,1012.83
2022-12-25T00:44:54.053Z,1012.73
2022-12-25T00:45:54.143Z,1012.74
2022-12-25T00:46:54.126Z,1012.75
2022-12-25T00:47:54.049Z,1012.81
2022-12-25T00:48:54.013Z,1012.83
2022-12-25T00:49:54.006Z,1012.83
2022-12-25T00:50:53.986Z,1012.90
2022-12-25T00:51:54.001Z,1012.86
2022-12-25T00:52:53.968Z,1012.89
2022-12-25T00:53:54.005Z,1012.89
2022-12-25T00:54:53.946Z,1012.94
2022-12-25T00:55:53.939Z,1012.95
2022-12-25T00:56:53.934Z,1012.97
2022-12-25T00:57:53.914Z,1013.05
2022-12-25T00:58:53.932Z,1013.06
2022-12-25T00:59:53.895Z,1013.13
2022-12-25T01:00:53.969Z,1013.17
2022-12-25T01:01:54.067Z,1013.18
2022-12-25T01:02:54.049Z,1013.13
2022-12-25T01:03:53.874Z,1013.16
2022-12-25T01:04:53.854Z,1013.19
2022-12-25T01:05:53.829Z,1013.17
2022-12-25T01:06:53.831Z,1013.23
2022-12-25T01:07:53.808Z,1013.17
2022-12-25T01:08:53.818Z,1013.16
2022-12-25T01:09:53.808Z,1013.20
2022-12-25T01:10:53.776Z,1013.22
2022-12-25T01:11:53.772Z,1013.20
2022-12-25T01:12:53.758Z,1013.17
2022-12-25T01:13:53.811Z,1013.19
2022-12-25T01:14:53.732Z,1013.19
2022-12-25T01:15:53.762Z,1013.13
2022-12-25T01:16:53.773Z,1013.17
2022-12-25T01:17:53.742Z,1013.16
2022-12-25T01:18:53.694Z,1013.15
2022-12-25T01:19:53.681Z,1013.17
2022-12-25T01:20:53.665Z,1013.24
2022-12-25T01:21:53.658Z,1013.22
2022-12-25T01:22:53.641Z,1013.23
2022-12-25T01:23:53.671Z,1013.20
2022-12-25T01:24:53.623Z,1013.25
2022-12-25T01:25:53.636Z,1013.26
2022-12-25T01:26:53.599Z,1013.33
2022-12-25T01:27:53.595Z,1013.31
2022-12-25T01:28:53.600Z,1013.39
2022-12-25T01:29:53.591Z,1013.45
2022-12-25T01:30:53.557Z,1013.47
2022-12-25T01:31:53.596Z,1013.44
2022-12-25T01:32:53.538Z,1013.45
2022-12-25T01:33:53.553Z,1013.41
2022-12-25T01:34:56.024Z,1013.53
2022-12-25T01:35:53.530Z,1013.47
2022-12-25T01:36:53.494Z,1013.49
2022-12-25T01:37:53.503Z,1013.45
2022-12-25T01:38:53.467Z,1013.48
2022-12-25T01:39:53.467Z,1013.43
2022-12-25T01:40:53.441Z,1013.41
2022-12-25T01:41:53.463Z,1013.48
2022-12-25T01:42:53.451Z,1013.43
2022-12-25T01:43:53.414Z,1013.54
2022-12-25T01:44:53.398Z,1013.55
2022-12-25T01:45:53.439Z,1013.57
2022-12-25T01:46:53.385Z,1013.56
2022-12-25T01:47:53.389Z,1013.53
2022-12-25T01:48:53.379Z,1013.53
2022-12-25T01:49:53.353Z,1013.58
2022-12-25T01:50:53.335Z,1013.59
2022-12-25T01:51:53.329Z,1013.59
2022-12-25T01:52:53.347Z,1013.55
2022-12-25T01:53:53.302Z,1013.62
2022-12-25T01:54:53.315Z,1013.63
2022-12-25T01:55:53.285Z,1013.61
2022-12-25T01:56:53.271Z,1013.61
2022-12-25T01:57:53.281Z,1013.60
2022-12-25T01:58:53.267Z,1013.60
2022-12-25T01:59:53.239Z,1013.60
2022-12-25T02:00:53.287Z,1013.60
2022-12-25T02:01:53.492Z,1013.62
2022-12-25T02:02:53.306Z,1013.61
2022-12-25T02:03:53.253Z,1013.62
2022-12-25T02:04:53.182Z,1013.59
2022-12-25T02:05:53.178Z,1013.61
2022-12-25T02:06:53.156Z,1013.73
2022-12-25T02:07:53.177Z,1013.70
2022-12-25T02:08:53.159Z,1013.72
2022-12-25T02:09:53.138Z,1013.73
2022-12-25T02:10:53.125Z,1013.76
2022-12-25T02:11:53.105Z,1013.72
2022-12-25T02:12:53.092Z,1013.75
2022-12-25T02:13:53.122Z,1013.71
2022-12-25T02:14:53.079Z,1013.75
2022-12-25T02:15:53.097Z,1013.68
2022-12-25T02:16:57.715Z,1013.67
2022-12-25T02:17:54.040Z,1013.68
2022-12-25T02:18:53.066Z,1013.67
2022-12-25T02:19:53.019Z,1013.68
2022-12-25T02:20:53.016Z,1013.69
2022-12-25T02:21:53.019Z,1013.66
2022-12-25T02:22:52.984Z,1013.74
2022-12-25T02:23:52.991Z,1013.69
2022-12-25T02:24:52.974Z,1013.66
2022-12-25T02:25:52.953Z,1013.71
2022-12-25T02:26:52.942Z,1013.69
2022-12-25T02:27:52.928Z,1013.68
2022-12-25T02:28:52.959Z,1013.68
2022-12-25T02:29:52.961Z,1013.68
2022-12-25T02:30:52.914Z,1013.71
2022-12-25T02:31:52.984Z,1013.72
2022-12-25T02:32:52.884Z,1013.77
2022-12-25T02:33:52.870Z,1013.82
2022-12-25T02:34:52.892Z,1013.83
2022-12-25T02:35:52.855Z,1013.84
2022-12-25T02:36:52.836Z,1013.86
2022-12-25T02:37:52.825Z,1013.85
2022-12-25T02:38:52.813Z,1013.86
2022-12-25T02:39:52.836Z,1013.84
2022-12-25T02:40:52.796Z,1013.88
2022-12-25T02:41:52.778Z,1013.86
2022-12-25T02:42:52.769Z,1013.90
2022-12-25T02:43:52.774Z,1013.90
2022-12-25T02:44:52.780Z,1013.88
2022-12-25T02:45:52.859Z,1013.87
2022-12-25T02:46:52.730Z,1013.80
2022-12-25T02:47:52.735Z,1013.83
2022-12-25T02:48:52.707Z,1013.85
2022-12-25T02:49:52.712Z,1013.83
2022-12-25T02:50:52.685Z,1013.90
2022-12-25T02:51:52.680Z,1013.88
2022-12-25T02:52:52.714Z,1013.88
2022-12-25T02:53:52.675Z,1013.86
2022-12-25T02:54:52.673Z,1013.90
2022-12-25T02:55:52.639Z,1013.94
2022-12-25T02:56:52.628Z,1013.88
2022-12-25T02:57:52.613Z,1013.83
2022-12-25T02:58:52.630Z,1013.87
2022-12-25T02:59:52.589Z,1013.92
2022-12-25T03:00:52.620Z,1013.88
2022-12-25T03:01:52.709Z,1013.90
2022-12-25T03:02:52.611Z,1013.87
2022-12-25T03:03:52.567Z,1013.84
2022-12-25T03:04:52.533Z,1013.91
2022-12-25T03:05:52.531Z,1013.90
2022-12-25T03:06:52.540Z,1013.87
2022-12-25T03:07:52.513Z,1013.88
2022-12-25T03:08:52.494Z,1013.91
2022-12-25T03:09:52.482Z,1013.91
2022-12-25T03:10:52.508Z,1013.85
2022-12-25T03:11:52.471Z,1013.86
2022-12-25T03:12:52.454Z,1013.81
2022-12-25T03:13:52.449Z,1013.83
2022-12-25T03:14:52.439Z,1013.85
2022-12-25T03:15:52.453Z,1013.91
2022-12-25T03:16:52.511Z,1013.95
2022-12-25T03:17:52.438Z,1013.99
2022-12-25T03:18:52.395Z,1013.93
2022-12-25T03:19:52.409Z,1013.94
2022-12-25T03:20:52.374Z,1013.89
2022-12-25T03:21:52.355Z,1013.86
2022-12-25T03:22:52.390Z,1013.92
2022-12-25T03:23:52.349Z,1013.86
2022-12-25T03:24:52.331Z,1013.87
2022-12-25T03:25:52.337Z,1013.90
2022-12-25T03:26:52.345Z,1013.91
2022-12-25T03:27:52.310Z,1013.88
2022-12-25T03:28:52.287Z,1013.90
2022-12-25T03:29:52.302Z,1013.94
2022-12-25T03:30:52.314Z,1013.94
2022-12-25T03:31:52.254Z,1013.93
2022-12-25T03:32:52.270Z,1013.92
2022-12-25T03:33:52.284Z,1013.95
2022-12-25T03:34:52.222Z,1013.99
2022-12-25T03:35:52.213Z,1014.03
2022-12-25T03:36:52.205Z,1014.10
2022-12-25T03:37:52.183Z,1014.07
2022-12-25T03:38:52.176Z,1014.12
2022-12-25T03:39:52.224Z,1014.07
2022-12-25T03:40:52.170Z,1014.11
2022-12-25T03:41:52.151Z,1014.16
2022-12-25T03:42:52.139Z,1014.11
2022-12-25T03:43:52.123Z,1014.11
2022-12-25T03:44:52.141Z,1014.09
2022-12-25T03:45:52.181Z,1014.13
2022-12-25T03:46:52.099Z,1014.16
2022-12-25T03:47:52.091Z,1014.14
2022-12-25T03:48:52.073Z,1014.18
2022-12-25T03:49:52.082Z,1014.13
2022-12-25T03:50:52.055Z,1014.12
2022-12-25T03:51:52.051Z,1014.10
2022-12-25T03:52:52.060Z,1014.22
2022-12-25T03:53:52.025Z,1014.20
2022-12-25T03:54:52.011Z,1014.13
2022-12-25T03:55:51.994Z,1014.19
2022-12-25T03:56:51.985Z,1014.22
2022-12-25T03:57:51.993Z,1014.23
2022-12-25T03:58:51.967Z,1014.21
2022-12-25T03:59:51.951Z,1014.24
2022-12-25T04:00:51.940Z,1014.27
2022-12-25T04:01:52.096Z,1014.32
2022-12-25T04:02:52.035Z,1014.35
2022-12-25T04:03:51.980Z,1014.31
2022-12-25T04:04:51.903Z,1014.38
2022-12-25T04:05:51.918Z,1014.37
2022-12-25T04:06:51.884Z,1014.31
2022-12-25T04:07:51.864Z,1014.34
2022-12-25T04:08:51.886Z,1014.38
2022-12-25T04:09:51.843Z,1014.34
2022-12-25T04:10:51.832Z,1014.41
2022-12-25T04:11:54.973Z,1014.44
2022-12-25T04:12:52.816Z,1014.45
2022-12-25T04:13:51.806Z,1014.43
2022-12-25T04:14:51.814Z,1014.39
2022-12-25T04:15:51.835Z,1014.44
2022-12-25T04:16:51.802Z,1014.38
2022-12-25T04:17:51.757Z,1014.38
2022-12-25T04:18:51.750Z,1014.40
2022-12-25T04:19:51.747Z,1014.42
2022-12-25T04:20:51.724Z,1014.43
2022-12-25T04:21:51.759Z,1014.46
2022-12-25T04:22:51.711Z,1014.40
2022-12-25T04:23:51.697Z,1014.51
2022-12-25T04:24:51.686Z,1014.44
2022-12-25T04:25:51.685Z,1014.50
2022-12-25T04:26:51.687Z,1014.46
2022-12-25T04:27:51.650Z,1014.46
2022-12-25T04:28:51.661Z,1014.41
2022-12-25T04:29:51.638Z,1014.42
2022-12-25T04:30:51.669Z,1014.41
2022-12-25T04:31:51.641Z,1014.40
2022-12-25T04:32:51.605Z,1014.43
2022-12-25T04:33:51.585Z,1014.46
2022-12-25T04:34:51.584Z,1014.42
2022-12-25T04:35:51.567Z,1014.38
2022-12-25T04:36:51.583Z,1014.39
2022-12-25T04:37:51.590Z,1014.43
2022-12-25T04:38:51.537Z,1014.47
2022-12-25T04:39:51.530Z,1014.47
2022-12-25T04:40:51.518Z,1014.47
2022-12-25T04:41:51.536Z,1014.48
2022-12-25T04:42:51.503Z,1014.45
2022-12-25T04:43:51.494Z,1014.46
2022-12-25T04:44:51.478Z,1014.49
2022-12-25T04:45:51.462Z,1014.50
2022-12-25T04:46:51.522Z,1014.52
2022-12-25T04:47:51.459Z,1014.52
2022-12-25T04:48:51.438Z,1014.51
2022-12-25T04:49:51.419Z,1014.58
2022-12-25T04:50:51.412Z,1014.59
2022-12-25T04:51:51.401Z,1014.62
2022-12-25T04:52:51.426Z,1014.53
2022-12-25T04:53:51.395Z,1014.59
2022-12-25T04:54:51.372Z,1014.61
2022-12-25T04:55:51.357Z,1014.60
2022-12-25T04:56:51.345Z,1014.52
2022-12-25T04:57:51.359Z,1014.55
2022-12-25T04:58:51.321Z,1014.52
2022-12-25T04:59:51.318Z,1014.59
2022-12-25T05:00:51.305Z,1014.55
2022-12-25T05:01:51.438Z,1014.55
2022-12-25T05:02:51.559Z,1014.56
2022-12-25T05:03:51.359Z,1014.53
2022-12-25T05:04:51.262Z,1014.50
2022-12-25T05:05:51.247Z,1014.44
2022-12-25T05:06:51.255Z,1014.47
2022-12-25T05:07:51.278Z,1014.47
2022-12-25T05:08:51.215Z,1014.47
2022-12-25T05:09:51.227Z,1014.48
2022-12-25T05:10:51.199Z,1014.49
2022-12-25T05:11:51.186Z,1014.50
2022-12-25T05:12:51.210Z,1014.47
2022-12-25T05:13:51.162Z,1014.38
2022-12-25T05:14:51.149Z,1014.44
2022-12-25T05:15:51.227Z,1014.39
2022-12-25T05:16:51.131Z,1014.41
2022-12-25T05:17:51.157Z,1014.43
2022-12-25T05:18:51.141Z,1014.36
2022-12-25T05:19:51.100Z,1014.46
2022-12-25T05:20:51.109Z,1014.44
2022-12-25T05:21:51.084Z,1014.46
2022-12-25T05:22:51.069Z,1014.47
2022-12-25T05:23:51.079Z,1014.52
2022-12-25T05:24:51.057Z,1014.48
2022-12-25T05:25:51.052Z,1014.42
2022-12-25T05:26:51.038Z,1014.41
2022-12-25T05:27:53.978Z,1014.41
2022-12-25T05:28:51.029Z,1014.39
2022-12-25T05:29:50.995Z,1014.38
2022-12-25T05:30:51.017Z,1014.34
2022-12-25T05:31:51.099Z,1014.32
2022-12-25T05:32:50.968Z,1014.36
2022-12-25T05:33:50.954Z,1014.35
2022-12-25T05:34:50.964Z,1014.35
2022-12-25T05:35:50.967Z,1014.47
2022-12-25T05:36:50.914Z,1014.42
2022-12-25T05:37:50.898Z,1014.40
2022-12-25T05:38:50.924Z,1014.38
2022-12-25T05:39:50.901Z,1014.37
2022-12-25T05:40:50.870Z,1014.38
2022-12-25T05:41:50.889Z,1014.32
2022-12-25T05:42:50.867Z,1014.40
2022-12-25T05:43:50.838Z,1014.36
2022-12-25T05:44:50.856Z,1014.44
2022-12-25T05:45:50.829Z,1014.51
2022-12-25T05:46:50.994Z,1014.47
2022-12-25T05:47:50.808Z,1014.51
2022-12-25T05:48:50.800Z,1014.51
2022-12-25T05:49:50.806Z,1014.48
2022-12-25T05:50:50.770Z,1014.47
2022-12-25T05:51:50.756Z,1014.38
2022-12-25T05:52:50.775Z,1014.40
2022-12-25T05:53:50.751Z,1014.47
2022-12-25T05:54:50.788Z,1014.38
2022-12-25T05:55:50.738Z,1014.42
2022-12-25T05:56:50.708Z,1014.40
2022-12-25T05:57:50.715Z,1014.41
2022-12-25T05:58:50.685Z,1014.33
2022-12-25T05:59:50.686Z,1014.37
2022-12-25T06:00:50.671Z,1014.32
2022-12-25T06:01:50.732Z,1014.37
2022-12-25T06:02:50.794Z,1014.38
2022-12-25T06:03:50.769Z,1014.34
2022-12-25T06:04:50.635Z,1014.39
2022-12-25T06:05:50.626Z,1014.30
2022-12-25T06:06:50.591Z,1014.22
2022-12-25T06:07:50.581Z,1014.26
2022-12-25T06:08:50.566Z,1014.31
2022-12-25T06:09:50.583Z,1014.22
2022-12-25T06:10:50.592Z,1014.20
2022-12-25T06:11:50.540Z,1014.22
2022-12-25T06:12:50.523Z,1014.22
2022-12-25T06:13:50.537Z,1014.19
2022-12-25T06:14:50.556Z,1014.17
2022-12-25T06:15:50.563Z,1014.16
2022-12-25T06:16:50.576Z,1014.11
2022-12-25T06:17:50.489Z,1014.08
2022-12-25T06:18:50.465Z,1014.09
2022-12-25T06:19:50.478Z,1014.12
2022-12-25T06:20:50.440Z,1014.10
2022-12-25T06:21:50.429Z,1014.12
2022-12-25T06:22:50.415Z,1014.08
2022-12-25T06:23:50.619Z,1014.05
2022-12-25T06:24:50.398Z,1014.07
2022-12-25T06:25:50.409Z,1014.13
2022-12-25T06:26:50.375Z,1014.15
2022-12-25T06:27:50.361Z,1014.19
2022-12-25T06:28:50.367Z,1014.26
2022-12-25T06:29:50.404Z,1014.20
2022-12-25T06:30:50.348Z,1014.28
2022-12-25T06:31:50.414Z,1014.25
2022-12-25T06:32:50.309Z,1014.26
2022-12-25T06:33:50.302Z,1014.27
2022-12-25T06:34:50.296Z,1014.26
2022-12-25T06:35:50.277Z,1014.27
2022-12-25T06:36:50.284Z,1014.18
2022-12-25T06:37:50.258Z,1014.27
2022-12-25T06:38:50.245Z,1014.25
2022-12-25T06:39:50.238Z,1014.25
2022-12-25T06:40:50.247Z,1014.24
2022-12-25T06:41:50.236Z,1014.28
2022-12-25T06:42:50.200Z,1014.23
2022-12-25T06:43:50.249Z,1014.21
2022-12-25T06:44:50.177Z,1014.29
2022-12-25T06:45:50.251Z,1014.22
2022-12-25T06:46:50.156Z,1014.30
2022-12-25T06:47:50.163Z,1014.26
2022-12-25T06:48:50.257Z,1014.27
2022-12-25T06:49:50.126Z,1014.24
2022-12-25T06:50:50.119Z,1014.22
2022-12-25T06:51:50.107Z,1014.22
2022-12-25T06:52:50.113Z,1014.25
2022-12-25T06:53:50.103Z,1014.26
2022-12-25T06:54:50.075Z,1014.25
2022-12-25T06:55:50.060Z,1014.29
2022-12-25T06:56:50.044Z,1014.26
2022-12-25T06:57:50.066Z,1014.38
2022-12-25T06:58:50.056Z,1014.50
2022-12-25T06:59:55.027Z,1014.40
2022-12-25T07:00:51.038Z,1014.39
2022-12-25T07:01:50.302Z,1014.37
2022-12-25T07:02:50.240Z,1014.46
2022-12-25T07:03:49.975Z,1014.49
2022-12-25T07:04:49.963Z,1014.46
2022-12-25T07:05:49.952Z,1014.46
2022-12-25T07:06:49.940Z,1014.46
2022-12-25T07:07:49.965Z,1014.41
2022-12-25T07:08:49.928Z,1014.49
2022-12-25T07:09:49.920Z,1014.46
2022-12-25T07:10:49.904Z,1014.45
2022-12-25T07:11:49.890Z,1014.48
2022-12-25T07:12:49.880Z,1014.54
2022-12-25T07:13:49.892Z,1014.53
2022-12-25T07:14:50.045Z,1014.63
2022-12-25T07:15:49.845Z,1014.60
2022-12-25T07:16:49.845Z,1014.64
2022-12-25T07:17:49.855Z,1014.64
2022-12-25T07:18:49.831Z,1014.62
2022-12-25T07:19:49.809Z,1014.66
2022-12-25T07:20:49.788Z,1014.75
2022-12-25T07:21:49.805Z,1014.73
2022-12-25T07:22:49.776Z,1014.73
2022-12-25T07:23:49.787Z,1014.82
2022-12-25T07:24:49.756Z,1014.79
2022-12-25T07:25:49.740Z,1014.78
2022-12-25T07:26:49.747Z,1014.74
2022-12-25T07:27:49.721Z,1014.74
2022-12-25T07:28:49.758Z,1014.73
2022-12-25T07:29:49.699Z,1014.78
2022-12-25T07:30:49.687Z,1014.81
2022-12-25T07:31:49.766Z,1014.77
2022-12-25T07:32:50.359Z,1014.88
2022-12-25T07:33:49.697Z,1014.81
2022-12-25T07:34:49.640Z,1014.82
2022-12-25T07:35:49.655Z,1014.83
2022-12-25T07:36:49.627Z,1014.90
2022-12-25T07:37:49.611Z,1014.90
2022-12-25T07:38:49.614Z,1014.85
2022-12-25T07:39:49.599Z,1014.87
2022-12-25T07:40:49.580Z,1014.92
2022-12-25T07:41:49.568Z,1014.87
2022-12-25T07:42:49.559Z,1014.91
2022-12-25T07:43:49.585Z,1014.86
2022-12-25T07:44:49.536Z,1014.93
2022-12-25T07:45:49.581Z,1014.92
2022-12-25T07:46:49.540Z,1014.87
2022-12-25T07:47:49.517Z,1014.90
2022-12-25T07:48:49.490Z,1014.90
2022-12-25T07:49:49.533Z,1014.89
2022-12-25T07:50:49.482Z,1014.89
2022-12-25T07:51:49.470Z,1014.84
2022-12-25T07:52:49.447Z,1014.79
2022-12-25T07:53:49.446Z,1014.73
2022-12-25T07:54:49.457Z,1014.77
2022-12-25T07:55:49.419Z,1014.75
2022-12-25T07:56:49.404Z,1014.74
2022-12-25T07:57:49.399Z,1014.73
2022-12-25T07:58:49.402Z,1014.70
2022-12-25T07:59:49.383Z,1014.72
2022-12-25T08:00:49.444Z,1014.71
2022-12-25T08:01:49.600Z,1014.66
2022-12-25T08:02:49.639Z,1014.75
2022-12-25T08:03:49.517Z,1014.80
2022-12-25T08:04:49.341Z,1014.73
2022-12-25T08:05:49.339Z,1014.81
2022-12-25T08:06:49.340Z,1014.79
2022-12-25T08:07:55.447Z,1014.87
2022-12-25T08:08:50.277Z,1014.93
2022-12-25T08:09:49.293Z,1014.86
2022-12-25T08:10:49.259Z,1014.92
2022-12-25T08:11:49.248Z,1014.88
2022-12-25T08:12:49.233Z,1014.84
2022-12-25T08:13:49.225Z,1014.86
2022-12-25T08:14:49.264Z,1014.89
2022-12-25T08:15:49.204Z,1014.82
2022-12-25T08:16:49.336Z,1014.90
2022-12-25T08:17:49.191Z,1014.91
2022-12-25T08:18:49.173Z,1014.89
2022-12-25T08:19:49.186Z,1014.92
2022-12-25T08:20:49.154Z,1014.88
2022-12-25T08:21:49.158Z,1014.90
2022-12-25T08:22:49.133Z,1014.92
2022-12-25T08:23:49.136Z,1014.95
2022-12-25T08:24:49.125Z,1015.03
2022-12-25T08:25:49.102Z,1015.02
2022-12-25T08:26:49.083Z,1015.07
2022-12-25T08:27:49.078Z,1015.03
2022-12-25T08:28:49.120Z,1015.05
2022-12-25T08:29:49.087Z,1015.02
2022-12-25T08:30:49.101Z,1015.00
2022-12-25T08:31:49.038Z,1014.93
2022-12-25T08:32:49.043Z,1014.90
2022-12-25T08:33:49.028Z,1014.95
2022-12-25T08:34:49.003Z,1014.89
2022-12-25T08:35:49.014Z,1014.93
2022-12-25T08:36:48.979Z,1014.93
2022-12-25T08:37:48.989Z,1014.91
2022-12-25T08:38:48.961Z,1014.91
2022-12-25T08:39:48.950Z,1014.93
2022-12-25T08:40:48.948Z,1014.92
2022-12-25T08:41:48.936Z,1014.92
2022-12-25T08:42:48.915Z,1014.92
2022-12-25T08:43:48.943Z,1014.96
2022-12-25T08:44:48.889Z,1014.92
2022-12-25T08:45:48.948Z,1014.87
2022-12-25T08:46:48.890Z,1014.92
2022-12-25T08:47:48.862Z,1014.83
2022-12-25T08:48:48.847Z,1014.80
2022-12-25T08:49:48.837Z,1014.83
2022-12-25T08:50:48.856Z,1014.80
2022-12-25T08:51:48.840Z,1014.86
2022-12-25T08:52:48.802Z,1014.84
2022-12-25T08:53:48.814Z,1014.79
2022-12-25T08:54:48.788Z,1014.77
2022-12-25T08:55:48.813Z,1014.77
2022-12-25T08:56:48.761Z,1014.77
2022-12-25T08:57:48.772Z,1014.75
2022-12-25T08:58:48.736Z,1014.71
2022-12-25T08:59:48.727Z,1014.72
2022-12-25T09:00:48.741Z,1014.63
2022-12-25T09:01:48.819Z,1014.66
2022-12-25T09:02:48.889Z,1014.58
2022-12-25T09:03:48.762Z,1014.55
2022-12-25T09:04:48.700Z,1014.54
2022-12-25T09:05:48.687Z,1014.46
2022-12-25T09:06:48.653Z,1014.37
2022-12-25T09:07:48.643Z,1014.37
2022-12-25T09:08:49.973Z,1014.37
2022-12-25T09:09:48.672Z,1014.31
2022-12-25T09:10:48.640Z,1014.32
2022-12-25T09:11:48.601Z,1014.32
2022-12-25T09:12:48.596Z,1014.34
2022-12-25T09:13:48.606Z,1014.32
2022-12-25T09:14:48.564Z,1014.34
2022-12-25T09:15:48.628Z,1014.28
2022-12-25T09:16:48.547Z,1014.26
2022-12-25T09:17:48.543Z,1014.26
2022-12-25T09:18:48.538Z,1014.24
2022-12-25T09:19:48.523Z,1014.25
2022-12-25T09:20:48.516Z,1014.27
2022-12-25T09:21:48.495Z,1014.20
2022-12-25T09:22:48.516Z,1014.23
2022-12-25T09:23:48.481Z,1014.28
2022-12-25T09:24:48.456Z,1014.35
2022-12-25T09:25:48.472Z,1014.26
2022-12-25T09:26:48.429Z,1014.34
2022-12-25T09:27:48.475Z,1014.30
2022-12-25T09:28:51.960Z,1014.27
2022-12-25T09:29:48.407Z,1014.34
2022-12-25T09:30:48.502Z,1014.38
2022-12-25T09:31:48.389Z,1014.36
2022-12-25T09:32:48.382Z,1014.34
2022-12-25T09:33:48.393Z,1014.30
2022-12-25T09:34:48.348Z,1014.29
2022-12-25T09:35:48.382Z,1014.31
2022-12-25T09:36:48.335Z,1014.26
2022-12-25T09:37:48.327Z,1014.33
2022-12-25T09:38:48.308Z,1014.34
2022-12-25T09:39:48.311Z,1014.25
2022-12-25T09:40:48.293Z,1014.26
2022-12-25T09:41:48.335Z,1014.29
2022-12-25T09:42:48.267Z,1014.28
2022-12-25T09:43:48.253Z,1014.24
2022-12-25T09:44:48.243Z,1014.21
2022-12-25T09:45:48.273Z,1014.16
2022-12-25T09:46:48.362Z,1014.24
2022-12-25T09:47:48.210Z,1014.21
2022-12-25T09:48:48.200Z,1014.28
2022-12-25T09:49:48.205Z,1014.31
2022-12-25T09:50:48.175Z,1014.24
2022-12-25T09:51:48.187Z,1014.28
2022-12-25T09:52:48.154Z,1014.21
2022-12-25T09:53:48.149Z,1014.25
2022-12-25T09:54:48.151Z,1014.25
2022-12-25T09:55:48.126Z,1014.16
2022-12-25T09:56:48.151Z,1014.27
2022-12-25T09:57:48.130Z,1014.25
2022-12-25T09:58:48.102Z,1014.28
2022-12-25T09:59:48.081Z,1014.37
2022-12-25T10:00:48.071Z,1014.39
2022-12-25T10:01:48.238Z,1014.40
2022-12-25T10:02:48.259Z,1014.37
2022-12-25T10:03:48.129Z,1014.34
2022-12-25T10:04:48.030Z,1014.37
2022-12-25T10:05:48.018Z,1014.33
2022-12-25T10:06:48.004Z,1014.29
2022-12-25T10:07:48.025Z,1014.27
2022-12-25T10:08:47.988Z,1014.34
2022-12-25T10:09:47.976Z,1014.24
2022-12-25T10:10:47.961Z,1014.25
2022-12-25T10:11:47.949Z,1014.33
2022-12-25T10:12:47.960Z,1014.39
2022-12-25T10:13:47.961Z,1014.41
2022-12-25T10:14:47.917Z,1014.32
2022-12-25T10:15:47.946Z,1014.43
2022-12-25T10:16:47.899Z,1014.44
2022-12-25T10:17:47.914Z,1014.36
2022-12-25T10:18:47.881Z,1014.47
2022-12-25T10:19:47.876Z,1014.42
2022-12-25T10:20:47.875Z,1014.44
2022-12-25T10:21:47.852Z,1014.43
2022-12-25T10:22:47.857Z,1014.46
2022-12-25T10:23:47.828Z,1014.47
2022-12-25T10:24:47.813Z,1014.54
2022-12-25T10:25:47.809Z,1014.49
2022-12-25T10:26:47.796Z,1014.50
2022-12-25T10:27:47.809Z,1014.42
2022-12-25T10:28:47.784Z,1014.43
2022-12-25T10:29:47.786Z,1014.30
2022-12-25T10:30:47.780Z,1014.28
2022-12-25T10:31:47.747Z,1014.21
2022-12-25T10:32:47.762Z,1014.20
2022-12-25T10:33:47.728Z,1014.20
2022-12-25T10:34:47.715Z,1014.16
2022-12-25T10:35:47.705Z,1014.17
2022-12-25T10:36:47.688Z,1014.12
2022-12-25T10:37:47.699Z,1014.16
2022-12-25T10:38:47.704Z,1014.09
2022-12-25T10:39:47.671Z,1014.12
2022-12-25T10:40:47.646Z,1014.13
2022-12-25T10:41:47.640Z,1014.11
2022-12-25T10:42:47.622Z,1014.07
2022-12-25T10:43:47.635Z,1014.04
2022-12-25T10:44:47.611Z,1014.07
2022-12-25T10:45:47.630Z,1014.06
2022-12-25T10:46:47.647Z,1014.05
2022-12-25T10:47:50.062Z,1014.04
2022-12-25T10:48:48.588Z,1014.02
2022-12-25T10:49:47.549Z,1014.06
2022-12-25T10:50:47.546Z,1014.08
2022-12-25T10:51:47.526Z,1014.06
2022-12-25T10:52:47.527Z,1014.01
2022-12-25T10:53:47.529Z,1014.04
2022-12-25T10:54:47.501Z,1013.97
2022-12-25T10:55:47.487Z,1013.99
2022-12-25T10:56:47.481Z,1013.99
2022-12-25T10:57:47.467Z,1013.96
2022-12-25T10:58:47.573Z,1013.92
2022-12-25T10:59:47.451Z,1013.82
2022-12-25T11:00:47.436Z,1013.85
2022-12-25T11:01:52.306Z,1013.75
2022-12-25T11:02:48.689Z,1013.74
2022-12-25T11:03:47.484Z,1013.70
2022-12-25T11:04:47.403Z,1013.82
2022-12-25T11:05:47.380Z,1013.83
2022-12-25T11:06:47.398Z,1013.80
2022-12-25T11:07:47.356Z,1013.75
2022-12-25T11:08:47.352Z,1013.81
2022-12-25T11:09:47.342Z,1013.85
2022-12-25T11:10:47.333Z,1013.93
2022-12-25T11:11:47.339Z,1013.87
2022-12-25T11:12:47.336Z,1013.91
2022-12-25T11:13:47.305Z,1013.92
2022-12-25T11:14:47.289Z,1013.95
2022-12-25T11:15:47.315Z,1014.02
2022-12-25T11:16:47.447Z,1014.04
2022-12-25T11:17:47.275Z,1014.14
2022-12-25T11:18:47.248Z,1014.14
2022-12-25T11:19:47.228Z,1014.08
2022-12-25T11:20:47.380Z,1014.09
2022-12-25T11:21:47.236Z,1014.06
2022-12-25T11:22:47.205Z,1014.11
2022-12-25T11:23:47.193Z,1014.01
2022-12-25T11:24:47.188Z,1013.98
2022-12-25T11:25:47.188Z,1013.93
2022-12-25T11:26:47.182Z,1013.94
2022-12-25T11:27:51.873Z,1013.89
2022-12-25T11:28:48.141Z,1013.91
2022-12-25T11:29:47.131Z,1013.91
2022-12-25T11:30:47.129Z,1013.95
2022-12-25T11:31:47.178Z,1013.92
2022-12-25T11:32:47.094Z,1013.92
2022-12-25T11:33:47.129Z,1013.97
2022-12-25T11:34:47.100Z,1013.99
2022-12-25T11:35:47.078Z,1014.02
2022-12-25T11:36:47.064Z,1014.07
2022-12-25T11:37:47.043Z,1014.10
2022-12-25T11:38:47.049Z,1014.05
2022-12-25T11:39:47.024Z,1014.08
2022-12-25T11:40:47.008Z,1014.02
2022-12-25T11:41:47.020Z,1013.91
2022-12-25T11:42:47.000Z,1013.76
2022-12-25T11:43:46.997Z,1013.68
2022-12-25T11:44:46.970Z,1013.65
2022-12-25T11:45:46.957Z,1013.59
2022-12-25T11:46:47.029Z,1013.67
2022-12-25T11:47:46.948Z,1013.68
2022-12-25T11:48:46.943Z,1013.64
2022-12-25T11:49:50.106Z,1013.53
2022-12-25T11:50:46.908Z,1013.45
2022-12-25T11:51:46.944Z,1013.42
2022-12-25T11:52:46.887Z,1013.34
2022-12-25T11:53:46.902Z,1013.29
2022-12-25T11:54:46.875Z,1013.24
2022-12-25T11:55:46.847Z,1013.14
2022-12-25T11:56:46.845Z,1013.10
2022-12-25T11:57:46.853Z,1013.03
2022-12-25T11:58:46.832Z,1012.99
2022-12-25T11:59:46.815Z,1012.91
2022-12-25T12:00:46.801Z,1012.85
2022-12-25T12:01:46.893Z,1012.83
2022-12-25T12:02:46.860Z,1012.77
2022-12-25T12:03:46.841Z,1012.72
2022-12-25T12:04:46.757Z,1012.74
2022-12-25T12:05:46.763Z,1012.69